Aérodrome :
LOGIN :

S'inscrire | Disclaimer

   EN    FR    IT 

 










Légende :    VFR   VFR Marginal   IFR   IFR Intensif   IFR Très Intensif
Visi : 
Plafond : 
>= 8 km
>= 3000ft
5 à 8 km
1000 à 3000 ft
1500m à 5 km
500 à 1000 ft
800 à 1500m
200 à 500 ft
< 800m
< 200 ft
Symboles :   Orages  Brouillard  Fortes neiges  Fortes précipitations  Vent > 20 kt
SIGMETs :   Divers  Orages  Givrage  Turbulence  Onde Orograph.  Cendres Volcan.






- Altitude de l'aérodrome : 0 ft


ENQA - Troll A Platform

DERNIER METAR :
  • 111920Z AUTO 08013KT 9999NDV OVC051/// 03/M04 Q1000 W06/S3

METARs EXPIRÉS :
  • 111850Z AUTO 08012KT 040V110 9999NDV BKN052/// 03/M05 Q1000 W06/S3
  • 111820Z AUTO 08010KT 010V110 9999NDV FEW032/// 03/M04 Q1000 W06/S3
  • 111750Z AUTO 10012KT 050V130 9999NDV BKN031/// BKN100/// 03/M04 Q1000 W06/S3
  • 111720Z AUTO 10011KT 9999NDV BKN034/// 03/M04 Q1000 W07/S3
  • 111650Z AUTO 09009KT 070V130 9999NDV FEW034/// SCT062/// BKN098/// 03/M05 Q1001 W06/S3

TAF N/A



MET'MAP, la Météo Aéronautique d'un coup d'oeil ! - Copyright ORBIFLY Décembre 2007 - Disclaimer

ORBIFLY MET'MAP TEAM :

Programmation & Développement : Alexandra Zaïnal
Conception & Développement : Baudouin d'Aumeries
Co-Programmation & Développement : Marc-Olivier Méhu
Soutien technique & logistique : Manuel Goepfert

Contact : metmap@orbifly.com




SOURCES & CREDITS :

   NOAA